Time;durP1;ratioP1;P1;durP2;ratioP2;P2;SDS_P1;SDS_P2;PMS_P1;PMS_P2;Temp;Humidity;BMP_temperature;BMP_pressure;BME280_temperature;BME280_humidity;BME280_pressure;Samples;Min_cycle;Max_cycle;Signal;HPM_P1;HPM_P2
2022/02/16 00:01:10;;;;;;;4.00;3.58;;;5.60;99.90;;;;;;5033058;28;20260;-86
2022/02/16 00:03:36;;;;;;;4.55;4.22;;;5.90;99.90;;;;;;5037422;28;20235;-86
2022/02/16 00:06:03;;;;;;;3.63;3.33;;;5.60;99.90;;;;;;5035805;28;20208;-86
2022/02/16 00:08:30;;;;;;;3.13;2.90;;;5.60;99.90;;;;;;5035331;28;20235;-86
2022/02/16 00:10:58;;;;;;;5.72;3.55;;;5.70;99.90;;;;;;5029071;28;20262;-86
2022/02/16 00:13:24;;;;;;;3.45;3.15;;;5.70;99.90;;;;;;5024646;28;20251;-87
2022/02/16 00:15:51;;;;;;;3.15;2.85;;;5.70;99.90;;;;;;5022531;28;20212;-85
2022/02/16 00:18:19;;;;;;;4.53;4.13;;;5.70;99.90;;;;;;5023763;28;20693;-86
2022/02/16 00:20:45;;;;;;;3.70;3.40;;;5.70;99.90;;;;;;5026331;28;20230;-87
2022/02/16 00:23:12;;;;;;;4.20;3.60;;;5.70;99.90;;;;;;5026268;28;20259;-88
2022/02/16 00:25:39;;;;;;;5.35;3.90;;;5.70;99.90;;;;;;5026973;28;20204;-87
2022/02/16 00:28:07;;;;;;;5.10;3.78;;;5.70;99.90;;;;;;5024272;28;20212;-86
2022/02/16 00:30:33;;;;;;;3.53;3.22;;;5.70;99.90;;;;;;5024209;28;20208;-85
2022/02/16 00:33:00;;;;;;;3.88;3.58;;;5.70;99.90;;;;;;5025008;28;20224;-86
2022/02/16 00:35:27;;;;;;;3.38;3.08;;;5.70;99.90;;;;;;5025643;28;20200;-85
2022/02/16 00:37:53;;;;;;;3.58;3.28;;;5.80;99.90;;;;;;5024980;28;20212;-87
2022/02/16 00:40:21;;;;;;;4.85;3.30;;;5.80;99.90;;;;;;5027907;28;20271;-86
2022/02/16 00:42:48;;;;;;;5.07;3.60;;;5.90;99.90;;;;;;5038613;28;20208;-88
2022/02/16 00:45:16;;;;;;;4.90;4.47;;;5.80;99.90;;;;;;5039006;28;20185;-88
2022/02/16 00:47:42;;;;;;;5.00;3.70;;;5.80;99.90;;;;;;5038797;28;20184;-88
2022/02/16 00:50:10;;;;;;;3.30;3.00;;;5.70;99.90;;;;;;5038736;28;20239;-89
2022/02/16 00:52:37;;;;;;;5.93;3.88;;;5.50;99.90;;;;;;5038436;28;20206;-88
2022/02/16 00:55:06;;;;;;;6.32;2.95;;;8.00;99.90;;;;;;5034693;28;20208;-88
2022/02/16 00:57:33;;;;;;;4.63;3.53;;;5.70;99.90;;;;;;5025292;28;20236;-88
2022/02/16 00:59:59;;;;;;;3.50;2.90;;;5.60;99.90;;;;;;5022024;28;20247;-88
2022/02/16 01:02:28;;;;;;;5.85;3.75;;;5.60;99.90;;;;;;5023916;28;20208;-87
2022/02/16 01:04:55;;;;;;;4.10;3.60;;;5.50;99.90;;;;;;5025584;28;20251;-88
2022/02/16 01:07:22;;;;;;;3.60;3.28;;;5.60;99.90;;;;;;5025209;28;20550;-88
2022/02/16 01:09:49;;;;;;;3.65;2.90;;;5.60;99.90;;;;;;5021980;28;20211;-88
2022/02/16 01:12:16;;;;;;;5.53;3.50;;;5.60;1.00;;;;;;5027392;28;20212;-88
2022/02/16 01:14:43;;;;;;;3.75;3.30;;;5.60;1.00;;;;;;5029422;28;20224;-88
2022/02/16 01:17:10;;;;;;;4.30;3.90;;;5.60;1.00;;;;;;5023055;28;20208;-88
2022/02/16 01:19:38;;;;;;;4.20;3.80;;;5.50;89.60;;;;;;5026890;28;20204;-87
2022/02/16 01:22:05;;;;;;;5.45;3.60;;;5.30;80.30;;;;;;5039233;28;20212;-87
2022/02/16 01:24:32;;;;;;;4.65;3.92;;;5.40;1.00;;;;;;5031893;28;20259;-87
2022/02/16 01:26:59;;;;;;;5.35;3.55;;;5.40;71.20;;;;;;5030459;28;20204;-87
2022/02/16 01:29:26;;;;;;;5.07;4.10;;;5.30;94.00;;;;;;5025838;28;20590;-88
2022/02/16 01:31:52;;;;;;;4.07;3.78;;;5.30;99.90;;;;;;5030890;28;20207;-86
2022/02/16 01:34:19;;;;;;;5.38;3.58;;;5.30;99.90;;;;;;5024226;28;20694;-87
2022/02/16 01:36:47;;;;;;;4.03;3.33;;;5.30;99.90;;;;;;5030538;28;20231;-87
2022/02/16 01:39:14;;;;;;;4.40;3.15;;;5.30;99.90;;;;;;5033409;28;20208;-87
2022/02/16 01:41:41;;;;;;;4.68;3.92;;;5.20;99.90;;;;;;5024165;28;20224;-87
2022/02/16 01:44:07;;;;;;;7.68;5.00;;;5.20;99.90;;;;;;5022933;28;20722;-86
2022/02/16 01:46:50;;;;;;;4.72;4.00;;;5.10;99.90;;;;;;5024894;28;20211;-87
2022/02/16 01:49:17;;;;;;;7.93;4.65;;;5.20;99.90;;;;;;5029011;28;20189;-88
2022/02/16 01:51:44;;;;;;;8.23;6.20;;;5.10;99.90;;;;;;5026297;28;20200;-87
2022/02/16 01:54:13;;;;;;;3.90;3.60;;;5.10;99.90;;;;;;5036943;28;20292;-87
2022/02/16 01:56:43;;;;;;;5.00;4.13;;;5.10;99.90;;;;;;5041192;28;20248;-87
2022/02/16 01:59:11;;;;;;;6.07;4.60;;;5.30;99.90;;;;;;5041785;28;20184;-87
2022/02/16 02:01:39;;;;;;;4.55;4.15;;;5.10;99.90;;;;;;5041618;28;20208;-88
2022/02/16 02:04:06;;;;;;;5.82;4.15;;;5.10;99.90;;;;;;5041664;28;20201;-89
2022/02/16 02:06:33;;;;;;;7.75;5.18;;;5.00;99.90;;;;;;5041609;28;20204;-87
2022/02/16 02:08:59;;;;;;;6.93;5.38;;;5.10;99.90;;;;;;5035221;28;20207;-87
2022/02/16 02:11:27;;;;;;;7.88;4.30;;;5.00;99.90;;;;;;5026555;28;20200;-87
2022/02/16 02:13:55;;;;;;;5.30;3.95;;;5.00;99.90;;;;;;5026363;28;20347;-87
2022/02/16 02:16:22;;;;;;;9.55;4.20;;;5.00;99.90;;;;;;5025548;28;20703;-87
2022/02/16 02:18:49;;;;;;;10.70;5.38;;;5.00;99.90;;;;;;5025330;28;20625;-86
2022/02/16 02:21:17;;;;;;;5.75;4.35;;;5.00;99.90;;;;;;5025954;28;20250;-86
2022/02/16 02:23:44;;;;;;;5.50;4.25;;;5.00;99.90;;;;;;5025420;28;20270;-88
2022/02/16 02:26:11;;;;;;;4.40;3.70;;;4.90;99.90;;;;;;5026052;28;20216;-86
2022/02/16 02:28:38;;;;;;;5.32;3.95;;;4.90;99.90;;;;;;5031004;28;20682;-86
2022/02/16 02:31:05;;;;;;;3.97;3.50;;;4.90;99.90;;;;;;5024795;28;20216;-87
2022/02/16 02:33:31;;;;;;;7.78;4.10;;;4.90;99.90;;;;;;5023540;28;20275;-87
2022/02/16 02:35:58;;;;;;;5.70;4.40;;;4.90;99.90;;;;;;5024079;28;20215;-87
2022/02/16 02:38:27;;;;;;;5.47;4.32;;;4.90;99.90;;;;;;5041048;28;20201;-88
2022/02/16 02:40:54;;;;;;;5.10;4.60;;;4.90;99.90;;;;;;5041197;28;20208;-87
2022/02/16 02:43:21;;;;;;;4.90;3.80;;;4.80;99.90;;;;;;5038928;28;20447;-87
2022/02/16 02:45:47;;;;;;;5.20;4.70;;;4.90;99.90;;;;;;5034446;28;20192;-87
2022/02/16 02:48:14;;;;;;;4.97;4.35;;;4.90;99.90;;;;;;5027577;28;20209;-85
2022/02/16 02:50:41;;;;;;;8.25;4.55;;;4.90;99.90;;;;;;5024830;28;20204;-86
2022/02/16 02:53:07;;;;;;;7.63;4.30;;;4.90;99.90;;;;;;5023136;28;20634;-85
2022/02/16 02:55:35;;;;;;;5.78;5.28;;;4.90;99.90;;;;;;5022145;28;20200;-86
2022/02/16 02:58:02;;;;;;;10.18;4.35;;;4.90;99.90;;;;;;5021845;28;20208;-85
2022/02/16 03:00:28;;;;;;;5.38;4.22;;;5.00;99.90;;;;;;5022116;28;20270;-84
2022/02/16 03:02:55;;;;;;;6.13;4.15;;;5.00;99.90;;;;;;5021290;28;20644;-85
2022/02/16 03:05:22;;;;;;;8.32;5.80;;;5.00;99.90;;;;;;5020980;28;20208;-85
2022/02/16 03:07:50;;;;;;;5.60;4.40;;;5.00;99.90;;;;;;5022556;28;20211;-85
2022/02/16 03:10:17;;;;;;;6.15;4.50;;;5.00;99.90;;;;;;5038532;28;20204;-84
2022/02/16 03:12:45;;;;;;;4.78;4.38;;;5.00;99.90;;;;;;5038797;28;20224;-85
2022/02/16 03:15:12;;;;;;;4.78;3.67;;;5.00;99.90;;;;;;5037437;28;20212;-85
2022/02/16 03:17:39;;;;;;;5.07;4.50;;;5.10;99.90;;;;;;5035889;28;20667;-85
2022/02/16 03:20:08;;;;;;;8.50;5.07;;;5.10;99.90;;;;;;5032539;28;20251;-86
2022/02/16 03:22:37;;;;;;;5.38;4.10;;;5.10;99.90;;;;;;5027485;28;20204;-85
2022/02/16 03:25:04;;;;;;;4.30;3.90;;;5.20;99.90;;;;;;5024609;28;20211;-85
2022/02/16 03:27:31;;;;;;;6.47;4.45;;;5.10;99.90;;;;;;5023716;28;20573;-86
2022/02/16 03:29:59;;;;;;;5.03;4.45;;;5.20;99.90;;;;;;5023143;28;20211;-86
2022/02/16 03:32:26;;;;;;;5.18;4.63;;;5.20;99.90;;;;;;5021950;28;20258;-85
2022/02/16 03:34:53;;;;;;;5.80;4.50;;;5.10;99.90;;;;;;5022089;28;20219;-86
2022/02/16 03:37:20;;;;;;;5.70;4.60;;;5.20;99.90;;;;;;5022706;28;20204;-86
2022/02/16 03:39:47;;;;;;;5.85;3.90;;;5.20;99.90;;;;;;5022520;28;20227;-86
2022/02/16 03:42:14;;;;;;;4.82;4.43;;;5.20;99.90;;;;;;5022969;28;20252;-86
2022/02/16 03:44:41;;;;;;;4.13;3.83;;;5.10;99.90;;;;;;5020756;28;20300;-86
2022/02/16 03:47:09;;;;;;;6.57;4.85;;;5.40;99.90;;;;;;5027626;28;20204;-86
2022/02/16 03:49:36;;;;;;;6.90;4.15;;;5.20;99.90;;;;;;5038365;28;20208;-85
2022/02/16 03:52:03;;;;;;;5.55;4.93;;;5.20;99.90;;;;;;5039247;28;20200;-86
2022/02/16 03:54:30;;;;;;;5.50;4.50;;;5.20;99.90;;;;;;5038393;28;20225;-85
2022/02/16 03:56:56;;;;;;;4.50;3.90;;;5.20;99.90;;;;;;5036289;28;20201;-86
2022/02/16 03:59:23;;;;;;;5.22;4.65;;;;;;;;;;5022945;28;20212;-85
2022/02/16 04:01:50;;;;;;;5.00;3.85;;;5.20;99.90;;;;;;5022037;28;20224;-86
2022/02/16 04:04:18;;;;;;;4.28;3.97;;;5.20;99.90;;;;;;5022740;28;20224;-86
2022/02/16 04:06:45;;;;;;;4.97;4.20;;;5.30;99.90;;;;;;5031618;28;20190;-86
2022/02/16 04:09:13;;;;;;;3.88;3.67;;;5.30;99.90;;;;;;5036448;28;20203;-86
2022/02/16 04:11:40;;;;;;;4.32;3.92;;;5.30;99.90;;;;;;5027038;28;20196;-86
2022/02/16 04:14:07;;;;;;;3.70;3.40;;;5.30;99.90;;;;;;5033295;28;20224;-87
2022/02/16 04:16:33;;;;;;;5.00;4.47;;;5.30;99.90;;;;;;5038646;28;20204;-86
2022/02/16 04:19:00;;;;;;;5.90;5.30;;;5.30;99.90;;;;;;5038689;28;20254;-85
2022/02/16 04:21:28;;;;;;;6.80;4.50;;;5.30;99.90;;;;;;5038952;28;20239;-86
2022/02/16 04:23:55;;;;;;;6.55;4.40;;;5.30;99.90;;;;;;5038081;28;20200;-86
2022/02/16 04:26:22;;;;;;;4.88;4.47;;;5.20;99.90;;;;;;5039168;28;20188;-86
2022/02/16 04:28:49;;;;;;;5.10;4.63;;;5.30;99.90;;;;;;5039121;28;20184;-86
2022/02/16 04:31:16;;;;;;;4.85;3.80;;;5.20;99.90;;;;;;5037876;28;20188;-86
2022/02/16 04:33:44;;;;;;;4.82;4.35;;;5.30;99.90;;;;;;5035377;28;20263;-86
2022/02/16 04:36:10;;;;;;;4.50;4.20;;;5.30;99.90;;;;;;5038605;28;20188;-85
2022/02/16 04:38:39;;;;;;;7.45;4.25;;;5.30;99.90;;;;;;5027041;28;20197;-86
2022/02/16 04:41:05;;;;;;;4.75;4.28;;;5.20;99.90;;;;;;5023288;28;20227;-85
2022/02/16 04:43:32;;;;;;;10.52;4.40;;;5.50;99.90;;;;;;5021161;28;20718;-87
2022/02/16 04:45:58;;;;;;;4.70;4.18;;;5.30;99.90;;;;;;5022588;28;20204;-86
2022/02/16 04:48:25;;;;;;;4.80;4.22;;;5.50;99.90;;;;;;5032761;28;20223;-85
2022/02/16 04:50:52;;;;;;;5.28;3.72;;;5.40;99.90;;;;;;5038671;28;20192;-85
2022/02/16 04:53:18;;;;;;;3.88;3.55;;;5.40;99.90;;;;;;5038428;28;20235;-86
2022/02/16 04:55:47;;;;;;;4.25;3.90;;;5.50;99.90;;;;;;5031869;28;20250;-86
2022/02/16 04:58:13;;;;;;;7.88;4.38;;;5.50;99.90;;;;;;5023813;28;20243;-86
2022/02/16 05:00:40;;;;;;;7.50;4.97;;;5.50;99.90;;;;;;5023257;28;20216;-86
2022/02/16 05:03:07;;;;;;;5.47;4.68;;;5.50;99.90;;;;;;5025232;28;20251;-86
2022/02/16 05:05:34;;;;;;;9.43;4.38;;;5.50;99.90;;;;;;5022901;28;20200;-87
2022/02/16 05:08:01;;;;;;;5.78;4.65;;;5.50;99.90;;;;;;5022065;28;20235;-87
2022/02/16 05:10:27;;;;;;;6.35;4.07;;;5.50;99.90;;;;;;5022756;28;20201;-88
2022/02/16 05:12:56;;;;;;;4.53;4.10;;;5.50;99.90;;;;;;5023879;28;20230;-87
2022/02/16 05:15:23;;;;;;;5.50;4.95;;;5.50;99.90;;;;;;5024691;28;20272;-87
2022/02/16 05:17:50;;;;;;;5.68;3.95;;;;;;;;;;5023940;28;20192;-88
2022/02/16 05:20:17;;;;;;;4.95;4.53;;;5.60;99.90;;;;;;5021787;28;20291;-86
2022/02/16 05:22:44;;;;;;;7.18;4.68;;;;;;;;;;5026123;28;20232;-86
2022/02/16 05:25:11;;;;;;;5.63;3.70;;;5.60;99.90;;;;;;5036982;28;20192;-86
2022/02/16 05:27:37;;;;;;;4.75;3.63;;;5.70;99.90;;;;;;5037761;28;20266;-85
2022/02/16 05:30:06;;;;;;;5.88;3.58;;;5.60;99.90;;;;;;5033385;28;20258;-86
2022/02/16 05:32:33;;;;;;;4.32;3.92;;;5.70;99.90;;;;;;5033193;28;20720;-85
2022/02/16 05:35:00;;;;;;;3.80;3.53;;;5.60;99.90;;;;;;5036169;28;20299;-86
2022/02/16 05:37:27;;;;;;;4.03;3.50;;;5.60;99.90;;;;;;5036548;28;20211;-86
2022/02/16 05:39:54;;;;;;;4.55;4.15;;;5.70;99.90;;;;;;5036772;28;20280;-85
2022/02/16 05:42:20;;;;;;;4.43;4.00;;;5.70;99.90;;;;;;5035179;28;20228;-85
2022/02/16 05:44:47;;;;;;;4.40;3.75;;;5.60;99.90;;;;;;5043079;22;20231;-80
2022/02/16 05:47:15;;;;;;;7.00;3.78;;;5.70;99.90;;;;;;5036369;28;20196;-80
2022/02/16 05:49:42;;;;;;;3.88;3.53;;;5.70;99.90;;;;;;5030797;28;20223;-79
2022/02/16 05:52:08;;;;;;;5.15;3.83;;;5.70;99.90;;;;;;5029675;28;20204;-80
2022/02/16 05:54:35;;;;;;;4.28;3.88;;;5.70;99.90;;;;;;5030851;28;20255;-80
2022/02/16 05:57:01;;;;;;;6.45;3.70;;;5.70;99.90;;;;;;5035927;28;20188;-80
2022/02/16 05:59:29;;;;;;;3.60;3.40;;;5.70;99.90;;;;;;5035511;28;20212;-79
2022/02/16 06:01:56;;;;;;;4.40;3.80;;;5.80;99.90;;;;;;5034197;28;20244;-80
2022/02/16 06:04:23;;;;;;;4.20;3.40;;;5.80;99.90;;;;;;5035207;28;20263;-80
2022/02/16 06:06:50;;;;;;;3.22;3.03;;;5.80;99.90;;;;;;5035404;28;20192;-80
2022/02/16 06:09:18;;;;;;;3.28;2.95;;;5.70;99.90;;;;;;5039647;28;20192;-80
2022/02/16 06:11:45;;;;;;;9.18;3.72;;;5.80;99.90;;;;;;5039160;28;20200;-79
2022/02/16 06:14:12;;;;;;;3.80;3.38;;;5.70;99.90;;;;;;5035703;28;20232;-81
2022/02/16 06:16:39;;;;;;;3.28;3.08;;;5.70;99.90;;;;;;5036447;28;20257;-80
2022/02/16 06:19:05;;;;;;;3.85;3.28;;;5.70;99.90;;;;;;5038933;28;20439;-80
2022/02/16 06:21:33;;;;;;;5.63;4.70;;;5.70;99.90;;;;;;5038569;28;20212;-81
2022/02/16 06:24:00;;;;;;;4.28;3.88;;;5.70;99.90;;;;;;5039945;28;20216;-80
2022/02/16 06:26:27;;;;;;;5.55;3.90;;;5.60;99.90;;;;;;5036997;28;20204;-80
2022/02/16 06:28:53;;;;;;;5.22;3.53;;;5.60;99.90;;;;;;5040360;28;20188;-81
2022/02/16 06:31:20;;;;;;;4.70;3.60;;;5.60;99.90;;;;;;5037745;28;20208;-79
2022/02/16 06:33:46;;;;;;;4.28;3.88;;;5.60;99.90;;;;;;5035605;28;20235;-80
2022/02/16 06:36:13;;;;;;;5.72;3.83;;;5.60;99.90;;;;;;5034767;28;20215;-80
2022/02/16 06:38:41;;;;;;;4.00;3.60;;;5.50;99.90;;;;;;5034859;28;20204;-79
2022/02/16 06:41:08;;;;;;;7.45;4.57;;;5.60;99.90;;;;;;5035822;28;20204;-79
2022/02/16 06:43:35;;;;;;;4.20;3.90;;;5.60;99.90;;;;;;5035441;28;20236;-79
2022/02/16 06:46:01;;;;;;;7.18;4.22;;;5.60;99.90;;;;;;5033230;28;20184;-81
2022/02/16 06:48:28;;;;;;;4.22;3.83;;;5.60;99.90;;;;;;5034593;28;20219;-79
2022/02/16 06:50:55;;;;;;;6.30;3.85;;;5.60;99.90;;;;;;5033757;28;20209;-81
2022/02/16 06:53:21;;;;;;;4.68;4.25;;;5.60;99.90;;;;;;5032701;28;20293;-81
2022/02/16 06:55:50;;;;;;;4.63;4.22;;;5.50;99.90;;;;;;5031904;28;20224;-82
2022/02/16 06:58:17;;;;;;;3.78;3.47;;;5.50;99.90;;;;;;5026707;28;20235;-81
2022/02/16 07:00:45;;;;;;;3.83;3.60;;;5.50;99.90;;;;;;5026251;28;20219;-81
2022/02/16 07:03:13;;;;;;;4.22;3.70;;;5.80;99.90;;;;;;5025256;28;20221;-81
2022/02/16 07:05:42;;;;;;;3.88;3.50;;;5.50;99.90;;;;;;5032369;28;20264;-82
2022/02/16 07:08:08;;;;;;;4.40;4.00;;;5.50;99.90;;;;;;5029802;28;20734;-82
2022/02/16 07:10:37;;;;;;;3.10;2.90;;;5.60;99.90;;;;;;5027368;28;20204;-82
2022/02/16 07:13:06;;;;;;;5.93;3.20;;;5.50;99.90;;;;;;5027035;28;20197;-82
2022/02/16 07:15:33;;;;;;;4.05;3.63;;;5.60;99.90;;;;;;5025776;28;20204;-80
2022/02/16 07:18:01;;;;;;;5.90;4.13;;;5.60;99.90;;;;;;5030695;28;20209;-81
2022/02/16 07:20:28;;;;;;;4.00;3.60;;;5.60;99.90;;;;;;5032900;28;20291;-81
2022/02/16 07:23:08;;;;;;;4.55;4.15;;;5.40;99.90;;;;;;5032444;28;20224;-82
2022/02/16 07:25:36;;;;;;;5.53;4.45;;;5.50;99.90;;;;;;5030479;28;20208;-83
2022/02/16 07:28:06;;;;;;;6.50;4.78;;;5.40;99.90;;;;;;5025697;28;20721;-82
2022/02/16 07:30:45;;;;;;;3.67;3.30;;;5.90;99.90;;;;;;5025419;28;20212;-83
2022/02/16 07:33:14;;;;;;;4.03;3.72;;;5.50;99.90;;;;;;5025695;28;20250;-82
2022/02/16 07:35:40;;;;;;;5.18;3.63;;;5.70;99.90;;;;;;5027979;28;20259;-83
2022/02/16 07:38:07;;;;;;;3.50;3.20;;;5.20;99.90;;;;;;5034744;28;20271;-82
2022/02/16 07:40:34;;;;;;;3.88;3.58;;;5.50;99.90;;;;;;5025273;28;20236;-80
2022/02/16 07:43:01;;;;;;;4.43;4.03;;;5.70;99.90;;;;;;5021810;28;20216;-82
2022/02/16 07:45:29;;;;;;;3.10;2.90;;;5.60;99.90;;;;;;5019122;28;20227;-80
2022/02/16 07:47:56;;;;;;;3.90;3.50;;;5.70;99.90;;;;;;5020488;28;20196;-83
2022/02/16 07:50:23;;;;;;;3.88;3.50;;;5.70;99.90;;;;;;5020735;28;20205;-80
2022/02/16 07:52:49;;;;;;;3.85;2.88;;;5.80;99.90;;;;;;5020974;28;20593;-82
2022/02/16 07:55:16;;;;;;;4.35;4.10;;;6.10;99.90;;;;;;5021308;28;20229;-82
2022/02/16 07:57:43;;;;;;;4.38;3.78;;;5.90;99.90;;;;;;5019513;28;20222;-81
2022/02/16 08:00:11;;;;;;;2.35;2.25;;;5.90;99.90;;;;;;5021324;28;20208;-81
2022/02/16 08:02:38;;;;;;;2.78;2.58;;;6.00;99.90;;;;;;5025755;28;20258;-82
2022/02/16 08:05:05;;;;;;;3.05;2.53;;;6.00;99.90;;;;;;5023851;28;20228;-81
2022/02/16 08:07:32;;;;;;;5.32;3.13;;;6.10;99.90;;;;;;5021783;28;20215;-82
2022/02/16 08:09:58;;;;;;;3.00;2.80;;;6.20;99.90;;;;;;5021489;28;20239;-82
2022/02/16 08:12:25;;;;;;;4.10;2.13;;;6.20;99.90;;;;;;5020643;28;20201;-82
2022/02/16 08:14:52;;;;;;;3.53;2.60;;;6.10;99.90;;;;;;5018364;28;20643;-81
2022/02/16 08:17:18;;;;;;;2.38;2.28;;;6.00;99.90;;;;;;5017989;28;20208;-82
2022/02/16 08:19:47;;;;;;;2.60;2.40;;;6.00;99.90;;;;;;5016901;28;20204;-82
2022/02/16 08:22:13;;;;;;;2.63;2.47;;;6.00;99.90;;;;;;5017855;28;20216;-82
2022/02/16 08:24:40;;;;;;;2.15;1.95;;;6.00;99.90;;;;;;5017740;28;20224;-82
2022/02/16 08:27:07;;;;;;;4.63;2.65;;;6.00;99.90;;;;;;5017745;28;20219;-80
2022/02/16 08:29:33;;;;;;;1.95;1.75;;;6.00;99.90;;;;;;5018618;28;20231;-82
2022/02/16 08:32:00;;;;;;;3.35;2.10;;;6.10;99.90;;;;;;5018356;28;20337;-80
2022/02/16 08:34:27;;;;;;;2.10;1.85;;;6.20;99.90;;;;;;5018225;28;20255;-79
2022/02/16 08:36:56;;;;;;;1.75;1.60;;;6.20;99.90;;;;;;5017640;28;20204;-82
2022/02/16 08:39:24;;;;;;;1.70;1.60;;;6.20;99.90;;;;;;5016904;28;20272;-82
2022/02/16 08:41:51;;;;;;;2.05;1.75;;;6.20;99.90;;;;;;5017982;28;20610;-82
2022/02/16 08:44:18;;;;;;;1.60;1.48;;;6.30;99.90;;;;;;5020919;28;20232;-79
2022/02/16 08:46:44;;;;;;;2.10;1.80;;;6.50;99.90;;;;;;5034777;28;20223;-82
2022/02/16 08:49:11;;;;;;;1.40;1.30;;;6.40;99.90;;;;;;5033472;28;20219;-81
2022/02/16 08:51:37;;;;;;;3.47;2.10;;;6.30;99.90;;;;;;5033377;28;20203;-81
2022/02/16 08:54:05;;;;;;;2.35;2.15;;;6.40;99.90;;;;;;5026890;28;20235;-80
2022/02/16 08:56:32;;;;;;;2.50;2.08;;;6.40;99.90;;;;;;5020600;28;20208;-81
2022/02/16 08:59:00;;;;;;;2.40;1.80;;;6.40;99.90;;;;;;5021074;28;20200;-81
2022/02/16 09:01:31;;;;;;;1.45;1.35;;;6.50;99.90;;;;;;5020663;28;20201;-82
2022/02/16 09:03:57;;;;;;;1.63;1.40;;;6.60;99.90;;;;;;5020410;28;20255;-80
2022/02/16 09:06:24;;;;;;;1.90;1.80;;;6.60;99.90;;;;;;5018471;28;20544;-82
2022/02/16 09:08:51;;;;;;;1.60;1.50;;;6.60;99.90;;;;;;5019686;28;20211;-82
2022/02/16 09:11:19;;;;;;;1.70;1.50;;;6.60;99.90;;;;;;5018829;28;20212;-81
2022/02/16 09:13:46;;;;;;;1.50;1.40;;;6.70;99.90;;;;;;5018416;28;20711;-82
2022/02/16 09:16:12;;;;;;;2.45;1.50;;;6.50;99.90;;;;;;5019673;28;20671;-82
2022/02/16 09:18:39;;;;;;;1.52;1.42;;;6.70;99.90;;;;;;5028240;28;20256;-81
2022/02/16 09:21:06;;;;;;;1.80;1.50;;;6.70;99.90;;;;;;5027864;28;20218;-82
2022/02/16 09:23:33;;;;;;;1.50;1.40;;;6.70;99.90;;;;;;5031107;28;20216;-81
2022/02/16 09:26:01;;;;;;;1.40;1.30;;;6.70;99.90;;;;;;5036932;28;20219;-80
2022/02/16 09:28:29;;;;;;;1.52;1.42;;;6.70;99.90;;;;;;5035065;28;20200;-80
2022/02/16 09:30:56;;;;;;;1.65;1.55;;;6.70;99.90;;;;;;5033864;28;20208;-79
2022/02/16 09:33:23;;;;;;;1.60;1.50;;;6.80;99.90;;;;;;5032698;28;20216;-79
2022/02/16 09:35:50;;;;;;;1.65;1.20;;;6.80;99.90;;;;;;5032046;28;20219;-80
2022/02/16 09:38:16;;;;;;;1.45;1.35;;;6.80;99.90;;;;;;5024021;28;20204;-83
2022/02/16 09:40:48;;;;;;;1.77;1.67;;;7.20;99.90;;;;;;5020851;28;20246;-80
2022/02/16 09:43:19;;;;;;;1.50;1.40;;;6.90;99.90;;;;;;5025517;28;20208;-81
2022/02/16 09:45:48;;;;;;;1.33;1.23;;;7.00;99.90;;;;;;5029199;28;20220;-81
2022/02/16 09:48:15;;;;;;;3.60;1.85;;;7.00;99.90;;;;;;5025125;28;20307;-81
2022/02/16 09:50:41;;;;;;;1.55;1.30;;;7.00;99.90;;;;;;5027100;28;20227;-82
2022/02/16 09:53:08;;;;;;;1.02;1.00;;;6.70;99.90;;;;;;5025250;28;20334;-81
2022/02/16 09:55:34;;;;;;;1.80;1.70;;;7.00;99.90;;;;;;5025856;28;20205;-84
2022/02/16 09:58:01;;;;;;;1.38;1.27;;;6.90;99.90;;;;;;5028248;28;20212;-84
2022/02/16 10:00:28;;;;;;;1.40;1.30;;;6.90;99.90;;;;;;5029105;28;20208;-85
2022/02/16 10:02:56;;;;;;;1.27;1.17;;;6.90;99.90;;;;;;5026772;28;20224;-81
2022/02/16 10:05:22;;;;;;;2.22;1.60;;;6.90;99.90;;;;;;5029698;28;20231;-83
2022/02/16 10:07:50;;;;;;;1.95;1.40;;;6.80;99.90;;;;;;5025602;28;20212;-82
2022/02/16 10:10:20;;;;;;;1.80;1.10;;;6.80;99.90;;;;;;5022239;28;20228;-81
2022/02/16 10:12:50;;;;;;;1.85;1.58;;;6.70;99.90;;;;;;5022154;28;20559;-81
2022/02/16 10:15:18;;;;;;;1.38;1.27;;;6.70;99.90;;;;;;5022579;28;20286;-81
2022/02/16 10:17:45;;;;;;;8.57;2.58;;;6.60;99.90;;;;;;5022615;28;20242;-81
2022/02/16 10:20:17;;;;;;;1.38;1.27;;;6.70;99.90;;;;;;5021089;28;20231;-81
2022/02/16 10:22:45;;;;;;;2.65;1.50;;;6.70;99.90;;;;;;5020751;28;20573;-82
2022/02/16 10:25:16;;;;;;;2.42;1.50;;;6.70;99.90;;;;;;5021311;28;20224;-81
2022/02/16 10:28:07;;;;;;;4.05;1.60;;;6.70;99.90;;;;;;5021612;28;20195;-82
2022/02/16 10:30:35;;;;;;;2.47;1.75;;;6.70;99.90;;;;;;5020947;28;20212;-82
2022/02/16 10:33:25;;;;;;;1.77;1.65;;;6.30;99.90;;;;;;5021390;28;20291;-81
2022/02/16 10:36:00;;;;;;;1.40;1.30;;;6.60;99.90;;;;;;5025926;28;20232;-82
2022/02/16 10:38:26;;;;;;;2.05;1.63;;;6.50;99.90;;;;;;5020225;28;20609;-82
2022/02/16 10:41:01;;;;;;;1.60;1.50;;;6.50;99.90;;;;;;5020691;28;20207;-80
2022/02/16 10:43:32;;;;;;;1.77;1.67;;;6.50;99.90;;;;;;5024259;28;20244;-80
2022/02/16 10:45:59;;;;;;;1.58;1.48;;;6.50;99.90;;;;;;5031903;28;20212;-80
2022/02/16 10:48:26;;;;;;;2.70;2.22;;;6.50;99.90;;;;;;5023775;28;20239;-82
2022/02/16 10:50:53;;;;;;;2.10;1.90;;;6.50;99.90;;;;;;5024135;28;20209;-83
2022/02/16 10:53:28;;;;;;;1.75;1.65;;;6.50;99.90;;;;;;5021668;28;20247;-81
2022/02/16 10:55:55;;;;;;;1.85;1.75;;;6.50;99.90;;;;;;5020208;28;20234;-82
2022/02/16 10:58:24;;;;;;;1.90;1.80;;;6.50;99.90;;;;;;5020066;28;20211;-83
2022/02/16 11:00:53;;;;;;;2.75;2.13;;;6.60;99.90;;;;;;5025272;28;20215;-82
2022/02/16 11:03:30;;;;;;;3.70;1.65;;;6.70;99.90;;;;;;5021505;28;20260;-80
2022/02/16 11:05:58;;;;;;;3.35;1.63;;;6.70;99.90;;;;;;5021320;28;20192;-82
2022/02/16 11:08:27;;;;;;;3.00;1.50;;;6.70;99.90;;;;;;5022121;28;20232;-82
2022/02/16 11:10:54;;;;;;;3.50;3.20;;;6.70;99.90;;;;;;5020748;28;20232;-82
2022/02/16 11:13:25;;;;;;;1.98;1.80;;;6.80;99.90;;;;;;5019937;28;20216;-82
2022/02/16 11:15:53;;;;;;;2.60;2.40;;;6.80;99.90;;;;;;5020363;28;20597;-81
2022/02/16 11:18:22;;;;;;;5.00;3.30;;;6.80;99.90;;;;;;5019813;28;20582;-82
2022/02/16 11:21:10;;;;;;;6.97;4.55;;;6.80;99.90;;;;;;5022662;28;20818;-83
2022/02/16 11:23:44;;;;;;;3.85;3.45;;;6.80;99.90;;;;;;5019034;28;20667;-82
2022/02/16 11:26:45;;;;;;;2.33;2.13;;;6.90;99.90;;;;;;5021752;28;20200;-82
2022/02/16 11:29:41;;;;;;;2.58;2.38;;;6.90;99.90;;;;;;5021042;28;20222;-81
2022/02/16 11:32:23;;;;;;;1.90;1.80;;;7.00;99.90;;;;;;5020010;28;20189;-83
2022/02/16 11:35:19;;;;;;;4.57;3.78;;;7.00;99.90;;;;;;5019771;28;20698;-82
2022/02/16 11:37:48;;;;;;;4.28;3.88;;;7.00;99.90;;;;;;5037197;28;20211;-81
2022/02/16 11:40:16;;;;;;;2.75;2.55;;;7.00;99.90;;;;;;5037552;28;20209;-82
2022/02/16 11:42:56;;;;;;;2.10;1.90;;;7.00;99.90;;;;;;5035912;28;20235;-82
2022/02/16 11:45:50;;;;;;;3.97;2.95;;;6.90;99.90;;;;;;5039886;22;20231;-86
2022/02/16 11:48:35;;;;;;;2.67;2.38;;;7.00;99.90;;;;;;5024665;28;20219;-88
2022/02/16 11:51:46;;;;;;;3.38;2.42;;;6.90;99.90;;;;;;5031647;28;20228;-86
2022/02/16 11:54:52;;;;;;;4.70;2.40;;;6.90;99.90;;;;;;5034568;28;20228;-86
2022/02/16 11:57:45;;;;;;;3.85;2.30;;;6.80;99.90;;;;;;5031685;28;20189;-88
2022/02/16 12:00:40;;;;;;;4.50;4.10;;;6.80;99.90;;;;;;5032384;28;20215;-87
2022/02/16 12:03:28;;;;;;;2.03;1.92;;;6.40;99.90;;;;;;5006769;28;21003;-86
2022/02/16 12:05:58;;;;;;;2.22;2.13;;;6.90;99.90;;;;;;5028096;28;20234;-86
2022/02/16 12:08:28;;;;;;;2.75;2.55;;;7.00;99.90;;;;;;5024418;28;20564;-86
2022/02/16 12:10:57;;;;;;;2.33;2.22;;;6.80;99.90;;;;;;5027802;28;20193;-86
2022/02/16 12:13:32;;;;;;;2.90;2.58;;;6.80;99.90;;;;;;5025863;28;20215;-87
2022/02/16 12:16:04;;;;;;;2.17;2.08;;;6.80;99.90;;;;;;5029203;28;20194;-87
2022/02/16 12:18:32;;;;;;;3.08;2.40;;;6.80;99.90;;;;;;5031716;28;20185;-87
2022/02/16 12:21:05;;;;;;;3.60;2.70;;;7.00;99.90;;;;;;5033218;28;20200;-86
2022/02/16 12:23:44;;;;;;;3.97;2.65;;;7.10;99.90;;;;;;5032602;28;20212;-86
2022/02/16 12:26:16;;;;;;;2.17;2.08;;;6.80;99.90;;;;;;5033415;28;20180;-86
2022/02/16 12:28:51;;;;;;;2.70;2.17;;;6.90;99.90;;;;;;5035425;28;20176;-87
2022/02/16 12:31:19;;;;;;;2.58;2.38;;;6.90;99.90;;;;;;5036277;28;20223;-86
2022/02/16 12:33:52;;;;;;;2.95;2.75;;;6.90;99.90;;;;;;5033422;28;20220;-86
2022/02/16 12:36:19;;;;;;;2.47;2.28;;;7.00;99.90;;;;;;5027355;28;20193;-87
2022/02/16 12:38:47;;;;;;;2.50;2.30;;;6.80;99.90;;;;;;5024510;28;20227;-87
2022/02/16 12:41:18;;;;;;;2.05;1.95;;;6.90;99.90;;;;;;5033196;28;20590;-87
2022/02/16 12:43:54;;;;;;;2.50;2.40;;;6.90;99.90;;;;;;5031557;28;20778;-86
2022/02/16 12:46:21;;;;;;;3.30;3.10;;;7.00;99.90;;;;;;5028934;28;20212;-87
2022/02/16 12:48:49;;;;;;;4.30;2.65;;;7.30;99.90;;;;;;5028824;28;20289;-86
2022/02/16 12:51:28;;;;;;;3.85;2.60;;;7.00;99.90;;;;;;5025669;28;20207;-87
2022/02/16 12:53:57;;;;;;;3.38;3.17;;;7.10;99.90;;;;;;5031031;28;20307;-87
2022/02/16 12:56:25;;;;;;;2.50;2.40;;;7.20;99.90;;;;;;5032279;28;20196;-87
2022/02/16 12:58:53;;;;;;;2.30;2.20;;;7.20;99.90;;;;;;5028965;28;20216;-86
2022/02/16 13:01:32;;;;;;;2.58;2.47;;;7.20;99.90;;;;;;5028105;28;20295;-87
2022/02/16 13:04:04;;;;;;;3.90;3.13;;;7.30;99.90;;;;;;5024850;28;20227;-86
2022/02/16 13:06:45;;;;;;;3.83;3.47;;;7.30;99.90;;;;;;5031943;28;20210;-86